sensor_id;sensor_type;location;lat;lon;timestamp;temperature;humidity
74224;SHT31;62585;49.706;18.216;2024-03-06T00:01:05;7.33;78.18
74224;SHT31;62585;49.706;18.216;2024-03-06T00:03:47;7.22;78.41
74224;SHT31;62585;49.706;18.216;2024-03-06T00:06:13;7.16;78.41
74224;SHT31;62585;49.706;18.216;2024-03-06T00:08:39;7.02;79.08
74224;SHT31;62585;49.706;18.216;2024-03-06T00:11:05;6.99;78.39
74224;SHT31;62585;49.706;18.216;2024-03-06T00:13:30;6.96;78.96
74224;SHT31;62585;49.706;18.216;2024-03-06T00:15:56;6.84;79.06
74224;SHT31;62585;49.706;18.216;2024-03-06T00:18:22;6.88;78.90
74224;SHT31;62585;49.706;18.216;2024-03-06T00:20:48;6.71;79.14
74224;SHT31;62585;49.706;18.216;2024-03-06T00:23:13;6.77;79.37
74224;SHT31;62585;49.706;18.216;2024-03-06T00:25:39;6.72;79.15
74224;SHT31;62585;49.706;18.216;2024-03-06T00:28:05;6.81;78.77
74224;SHT31;62585;49.706;18.216;2024-03-06T00:30:31;6.65;79.22
74224;SHT31;62585;49.706;18.216;2024-03-06T00:32:57;6.65;79.38
74224;SHT31;62585;49.706;18.216;2024-03-06T00:35:24;6.64;79.06
74224;SHT31;62585;49.706;18.216;2024-03-06T00:37:52;6.51;79.04
74224;SHT31;62585;49.706;18.216;2024-03-06T00:40:18;6.59;78.70
74224;SHT31;62585;49.706;18.216;2024-03-06T00:42:44;6.42;78.76
74224;SHT31;62585;49.706;18.216;2024-03-06T00:45:11;6.36;78.88
74224;SHT31;62585;49.706;18.216;2024-03-06T00:47:37;6.40;79.01
74224;SHT31;62585;49.706;18.216;2024-03-06T00:50:03;6.31;79.20
74224;SHT31;62585;49.706;18.216;2024-03-06T00:52:33;6.41;79.19
74224;SHT31;62585;49.706;18.216;2024-03-06T00:54:59;6.42;79.00
74224;SHT31;62585;49.706;18.216;2024-03-06T00:57:25;6.30;78.84
74224;SHT31;62585;49.706;18.216;2024-03-06T00:59:51;6.42;78.61
74224;SHT31;62585;49.706;18.216;2024-03-06T01:02:17;6.48;78.38
74224;SHT31;62585;49.706;18.216;2024-03-06T01:04:43;6.48;78.24
74224;SHT31;62585;49.706;18.216;2024-03-06T01:07:08;6.55;78.31
74224;SHT31;62585;49.706;18.216;2024-03-06T01:09:34;6.00;79.36
74224;SHT31;62585;49.706;18.216;2024-03-06T01:12:00;6.19;79.33
74224;SHT31;62585;49.706;18.216;2024-03-06T01:14:26;6.38;78.92
74224;SHT31;62585;49.706;18.216;2024-03-06T01:16:51;6.59;78.24
74224;SHT31;62585;49.706;18.216;2024-03-06T01:19:17;6.51;78.66
74224;SHT31;62585;49.706;18.216;2024-03-06T01:21:43;6.59;78.58
74224;SHT31;62585;49.706;18.216;2024-03-06T01:24:09;6.40;79.11
74224;SHT31;62585;49.706;18.216;2024-03-06T01:26:34;6.09;80.22
74224;SHT31;62585;49.706;18.216;2024-03-06T01:29:00;6.19;80.95
74224;SHT31;62585;49.706;18.216;2024-03-06T01:31:26;6.07;81.13
74224;SHT31;62585;49.706;18.216;2024-03-06T01:33:52;6.27;80.63
74224;SHT31;62585;49.706;18.216;2024-03-06T01:36:18;6.31;80.87
74224;SHT31;62585;49.706;18.216;2024-03-06T01:38:44;6.40;80.61
74224;SHT31;62585;49.706;18.216;2024-03-06T01:41:11;6.52;80.49
74224;SHT31;62585;49.706;18.216;2024-03-06T01:43:38;6.36;80.84
74224;SHT31;62585;49.706;18.216;2024-03-06T01:46:06;6.51;80.65
74224;SHT31;62585;49.706;18.216;2024-03-06T01:48:33;6.54;80.85
74224;SHT31;62585;49.706;18.216;2024-03-06T01:51:02;6.42;81.12
74224;SHT31;62585;49.706;18.216;2024-03-06T01:53:29;6.54;80.76
74224;SHT31;62585;49.706;18.216;2024-03-06T01:55:56;6.52;81.16
74224;SHT31;62585;49.706;18.216;2024-03-06T01:58:23;6.45;81.11
74224;SHT31;62585;49.706;18.216;2024-03-06T02:00:50;6.44;81.33
74224;SHT31;62585;49.706;18.216;2024-03-06T02:03:17;6.50;81.25
74224;SHT31;62585;49.706;18.216;2024-03-06T02:05:42;6.57;81.37
74224;SHT31;62585;49.706;18.216;2024-03-06T02:08:08;6.64;80.78
74224;SHT31;62585;49.706;18.216;2024-03-06T02:13:09;6.44;81.42
74224;SHT31;62585;49.706;18.216;2024-03-06T02:15:35;6.61;81.08
74224;SHT31;62585;49.706;18.216;2024-03-06T02:18:05;6.57;81.15
74224;SHT31;62585;49.706;18.216;2024-03-06T02:20:31;6.55;80.82
74224;SHT31;62585;49.706;18.216;2024-03-06T02:22:57;6.69;80.88
74224;SHT31;62585;49.706;18.216;2024-03-06T02:25:23;6.78;80.80
74224;SHT31;62585;49.706;18.216;2024-03-06T02:27:48;6.77;80.57
74224;SHT31;62585;49.706;18.216;2024-03-06T02:30:14;6.69;81.29
74224;SHT31;62585;49.706;18.216;2024-03-06T02:32:40;6.68;81.22
74224;SHT31;62585;49.706;18.216;2024-03-06T02:35:06;6.92;80.38
74224;SHT31;62585;49.706;18.216;2024-03-06T02:37:35;6.82;80.37
74224;SHT31;62585;49.706;18.216;2024-03-06T02:40:01;6.57;80.74
74224;SHT31;62585;49.706;18.216;2024-03-06T02:42:28;6.64;80.52
74224;SHT31;62585;49.706;18.216;2024-03-06T02:44:54;6.50;80.93
74224;SHT31;62585;49.706;18.216;2024-03-06T02:47:20;6.58;80.56
74224;SHT31;62585;49.706;18.216;2024-03-06T02:49:46;6.37;81.35
74224;SHT31;62585;49.706;18.216;2024-03-06T02:52:11;6.57;81.32
74224;SHT31;62585;49.706;18.216;2024-03-06T02:54:37;6.61;80.91
74224;SHT31;62585;49.706;18.216;2024-03-06T02:57:06;6.50;80.50
74224;SHT31;62585;49.706;18.216;2024-03-06T02:59:32;6.69;80.29
74224;SHT31;62585;49.706;18.216;2024-03-06T03:01:58;6.57;80.36
74224;SHT31;62585;49.706;18.216;2024-03-06T03:04:24;6.57;80.27
74224;SHT31;62585;49.706;18.216;2024-03-06T03:06:50;6.59;80.03
74224;SHT31;62585;49.706;18.216;2024-03-06T03:09:16;6.47;80.53
74224;SHT31;62585;49.706;18.216;2024-03-06T03:11:42;6.75;79.66
74224;SHT31;62585;49.706;18.216;2024-03-06T03:14:09;6.50;79.89
74224;SHT31;62585;49.706;18.216;2024-03-06T03:16:35;6.44;79.97
74224;SHT31;62585;49.706;18.216;2024-03-06T03:19:01;6.30;79.73
74224;SHT31;62585;49.706;18.216;2024-03-06T03:21:27;6.36;79.49
74224;SHT31;62585;49.706;18.216;2024-03-06T03:23:53;6.24;80.19
74224;SHT31;62585;49.706;18.216;2024-03-06T03:26:19;6.16;80.31
74224;SHT31;62585;49.706;18.216;2024-03-06T03:28:45;6.13;80.31
74224;SHT31;62585;49.706;18.216;2024-03-06T03:31:10;6.07;80.39
74224;SHT31;62585;49.706;18.216;2024-03-06T03:33:39;6.10;80.10
74224;SHT31;62585;49.706;18.216;2024-03-06T03:36:07;6.23;79.57
74224;SHT31;62585;49.706;18.216;2024-03-06T03:38:34;6.36;78.91
74224;SHT31;62585;49.706;18.216;2024-03-06T03:41:13;6.20;78.66
74224;SHT31;62585;49.706;18.216;2024-03-06T03:43:39;6.27;78.46
74224;SHT31;62585;49.706;18.216;2024-03-06T03:46:05;6.03;79.01
74224;SHT31;62585;49.706;18.216;2024-03-06T03:48:32;5.98;78.93
74224;SHT31;62585;49.706;18.216;2024-03-06T03:51:04;5.85;79.54
74224;SHT31;62585;49.706;18.216;2024-03-06T03:53:31;5.68;80.19
74224;SHT31;62585;49.706;18.216;2024-03-06T03:55:57;5.52;79.61
74224;SHT31;62585;49.706;18.216;2024-03-06T03:58:23;5.73;79.47
74224;SHT31;62585;49.706;18.216;2024-03-06T04:00:48;5.59;79.71
74224;SHT31;62585;49.706;18.216;2024-03-06T04:03:21;5.59;79.45
74224;SHT31;62585;49.706;18.216;2024-03-06T04:05:48;5.58;79.71
74224;SHT31;62585;49.706;18.216;2024-03-06T04:08:14;5.58;79.37
74224;SHT31;62585;49.706;18.216;2024-03-06T04:10:42;5.56;79.01
74224;SHT31;62585;49.706;18.216;2024-03-06T04:13:08;5.37;79.15
74224;SHT31;62585;49.706;18.216;2024-03-06T04:15:33;5.30;79.61
74224;SHT31;62585;49.706;18.216;2024-03-06T04:17:59;5.33;79.39
74224;SHT31;62585;49.706;18.216;2024-03-06T04:20:25;5.40;79.46
74224;SHT31;62585;49.706;18.216;2024-03-06T04:22:51;5.54;79.13
74224;SHT31;62585;49.706;18.216;2024-03-06T04:25:17;5.33;79.44
74224;SHT31;62585;49.706;18.216;2024-03-06T04:27:44;5.30;79.67
74224;SHT31;62585;49.706;18.216;2024-03-06T04:30:10;5.43;79.17
74224;SHT31;62585;49.706;18.216;2024-03-06T04:32:36;5.26;79.01
74224;SHT31;62585;49.706;18.216;2024-03-06T04:35:02;5.35;79.09
74224;SHT31;62585;49.706;18.216;2024-03-06T04:37:28;5.28;79.29
74224;SHT31;62585;49.706;18.216;2024-03-06T04:39:54;5.41;79.08
74224;SHT31;62585;49.706;18.216;2024-03-06T04:42:20;5.09;79.88
74224;SHT31;62585;49.706;18.216;2024-03-06T04:44:46;5.06;79.95
74224;SHT31;62585;49.706;18.216;2024-03-06T04:47:12;4.90;80.52
74224;SHT31;62585;49.706;18.216;2024-03-06T04:49:37;4.93;80.52
74224;SHT31;62585;49.706;18.216;2024-03-06T04:52:04;5.01;80.24
74224;SHT31;62585;49.706;18.216;2024-03-06T04:54:30;5.07;80.22
74224;SHT31;62585;49.706;18.216;2024-03-06T04:56:55;5.17;80.04
74224;SHT31;62585;49.706;18.216;2024-03-06T04:59:21;4.99;80.45
74224;SHT31;62585;49.706;18.216;2024-03-06T05:01:47;5.12;80.34
74224;SHT31;62585;49.706;18.216;2024-03-06T05:04:13;5.04;80.43
74224;SHT31;62585;49.706;18.216;2024-03-06T05:06:39;5.06;80.26
74224;SHT31;62585;49.706;18.216;2024-03-06T05:09:04;4.80;80.65
74224;SHT31;62585;49.706;18.216;2024-03-06T05:11:31;4.42;81.81
74224;SHT31;62585;49.706;18.216;2024-03-06T05:13:59;4.34;82.33
74224;SHT31;62585;49.706;18.216;2024-03-06T05:16:25;4.28;82.51
74224;SHT31;62585;49.706;18.216;2024-03-06T05:18:52;4.24;82.41
74224;SHT31;62585;49.706;18.216;2024-03-06T05:21:19;4.14;82.88
74224;SHT31;62585;49.706;18.216;2024-03-06T05:23:48;4.10;82.99
74224;SHT31;62585;49.706;18.216;2024-03-06T05:26:14;4.10;83.10
74224;SHT31;62585;49.706;18.216;2024-03-06T05:28:41;4.06;83.24
74224;SHT31;62585;49.706;18.216;2024-03-06T05:31:16;3.86;84.05
74224;SHT31;62585;49.706;18.216;2024-03-06T05:33:48;3.83;84.56
74224;SHT31;62585;49.706;18.216;2024-03-06T05:36:15;3.91;84.21
74224;SHT31;62585;49.706;18.216;2024-03-06T05:38:46;4.07;83.58
74224;SHT31;62585;49.706;18.216;2024-03-06T05:41:13;4.30;83.29
74224;SHT31;62585;49.706;18.216;2024-03-06T05:43:39;4.55;82.06
74224;SHT31;62585;49.706;18.216;2024-03-06T05:46:06;4.72;81.21
74224;SHT31;62585;49.706;18.216;2024-03-06T05:48:32;4.66;80.58
74224;SHT31;62585;49.706;18.216;2024-03-06T05:50:59;4.71;80.36
74224;SHT31;62585;49.706;18.216;2024-03-06T05:53:25;4.68;80.42
74224;SHT31;62585;49.706;18.216;2024-03-06T05:55:51;4.71;80.36
74224;SHT31;62585;49.706;18.216;2024-03-06T05:58:18;4.72;80.16
74224;SHT31;62585;49.706;18.216;2024-03-06T06:00:44;4.73;80.12
74224;SHT31;62585;49.706;18.216;2024-03-06T06:03:09;4.82;80.11
74224;SHT31;62585;49.706;18.216;2024-03-06T06:05:39;4.56;81.07
74224;SHT31;62585;49.706;18.216;2024-03-06T06:08:06;4.59;80.93
74224;SHT31;62585;49.706;18.216;2024-03-06T06:10:32;4.72;80.77
74224;SHT31;62585;49.706;18.216;2024-03-06T06:12:57;4.69;80.65
74224;SHT31;62585;49.706;18.216;2024-03-06T06:15:23;4.77;80.77
74224;SHT31;62585;49.706;18.216;2024-03-06T06:17:49;4.56;81.48
74224;SHT31;62585;49.706;18.216;2024-03-06T06:20:15;4.62;81.73
74224;SHT31;62585;49.706;18.216;2024-03-06T06:22:43;4.75;81.50
74224;SHT31;62585;49.706;18.216;2024-03-06T06:25:09;5.06;80.76
74224;SHT31;62585;49.706;18.216;2024-03-06T06:27:35;5.06;80.30
74224;SHT31;62585;49.706;18.216;2024-03-06T06:30:02;5.27;80.26
74224;SHT31;62585;49.706;18.216;2024-03-06T06:32:28;5.24;80.50
74224;SHT31;62585;49.706;18.216;2024-03-06T06:34:54;5.19;80.75
74224;SHT31;62585;49.706;18.216;2024-03-06T06:37:19;5.34;80.56
74224;SHT31;62585;49.706;18.216;2024-03-06T06:39:45;5.17;81.38
74224;SHT31;62585;49.706;18.216;2024-03-06T06:42:11;5.38;81.04
74224;SHT31;62585;49.706;18.216;2024-03-06T06:44:38;5.22;81.22
74224;SHT31;62585;49.706;18.216;2024-03-06T06:47:03;5.26;81.40
74224;SHT31;62585;49.706;18.216;2024-03-06T06:49:29;5.66;80.56
74224;SHT31;62585;49.706;18.216;2024-03-06T06:51:55;5.69;79.51
74224;SHT31;62585;49.706;18.216;2024-03-06T06:54:22;6.00;79.11
74224;SHT31;62585;49.706;18.216;2024-03-06T06:56:47;5.99;78.88
74224;SHT31;62585;49.706;18.216;2024-03-06T06:59:13;6.16;78.56
74224;SHT31;62585;49.706;18.216;2024-03-06T07:01:39;6.23;78.55
74224;SHT31;62585;49.706;18.216;2024-03-06T07:04:06;6.36;77.88
74224;SHT31;62585;49.706;18.216;2024-03-06T07:06:32;6.34;77.76
74224;SHT31;62585;49.706;18.216;2024-03-06T07:08:58;6.54;77.89
74224;SHT31;62585;49.706;18.216;2024-03-06T07:11:23;6.63;77.49
74224;SHT31;62585;49.706;18.216;2024-03-06T07:13:49;6.72;77.50
74224;SHT31;62585;49.706;18.216;2024-03-06T07:16:15;6.92;77.26
74224;SHT31;62585;49.706;18.216;2024-03-06T07:18:42;7.13;76.91
74224;SHT31;62585;49.706;18.216;2024-03-06T07:21:08;6.96;77.79
74224;SHT31;62585;49.706;18.216;2024-03-06T07:23:34;7.19;77.64
74224;SHT31;62585;49.706;18.216;2024-03-06T07:26:00;7.06;77.50
74224;SHT31;62585;49.706;18.216;2024-03-06T07:28:26;7.13;77.30
74224;SHT31;62585;49.706;18.216;2024-03-06T07:30:52;7.28;76.93
74224;SHT31;62585;49.706;18.216;2024-03-06T07:33:18;7.40;76.80
74224;SHT31;62585;49.706;18.216;2024-03-06T07:35:43;7.53;75.96
74224;SHT31;62585;49.706;18.216;2024-03-06T07:38:09;7.53;76.02
74224;SHT31;62585;49.706;18.216;2024-03-06T07:40:35;7.37;77.43
74224;SHT31;62585;49.706;18.216;2024-03-06T07:43:01;7.67;76.07
74224;SHT31;62585;49.706;18.216;2024-03-06T07:45:26;7.20;74.70
74224;SHT31;62585;49.706;18.216;2024-03-06T07:47:53;7.16;75.49
74224;SHT31;62585;49.706;18.216;2024-03-06T07:50:19;7.13;75.67
74224;SHT31;62585;49.706;18.216;2024-03-06T07:52:45;6.99;75.81
74224;SHT31;62585;49.706;18.216;2024-03-06T07:55:12;6.96;76.38
74224;SHT31;62585;49.706;18.216;2024-03-06T07:57:37;7.10;76.02
74224;SHT31;62585;49.706;18.216;2024-03-06T08:00:07;7.15;75.96
74224;SHT31;62585;49.706;18.216;2024-03-06T08:02:40;7.07;76.57
74224;SHT31;62585;49.706;18.216;2024-03-06T08:05:12;7.16;75.82
74224;SHT31;62585;49.706;18.216;2024-03-06T08:07:41;7.31;76.01
74224;SHT31;62585;49.706;18.216;2024-03-06T08:10:13;7.27;75.64
74224;SHT31;62585;49.706;18.216;2024-03-06T08:12:43;7.10;75.33
74224;SHT31;62585;49.706;18.216;2024-03-06T08:15:11;7.15;75.77
74224;SHT31;62585;49.706;18.216;2024-03-06T08:17:38;7.12;76.45
74224;SHT31;62585;49.706;18.216;2024-03-06T08:20:05;7.65;76.03
74224;SHT31;62585;49.706;18.216;2024-03-06T08:22:34;7.71;75.03
74224;SHT31;62585;49.706;18.216;2024-03-06T08:25:11;7.75;74.16
74224;SHT31;62585;49.706;18.216;2024-03-06T08:27:40;7.75;74.60
74224;SHT31;62585;49.706;18.216;2024-03-06T08:30:07;7.89;74.06
74224;SHT31;62585;49.706;18.216;2024-03-06T08:32:34;7.81;74.18
74224;SHT31;62585;49.706;18.216;2024-03-06T08:35:13;7.78;73.80
74224;SHT31;62585;49.706;18.216;2024-03-06T08:37:42;7.92;74.12
74224;SHT31;62585;49.706;18.216;2024-03-06T08:40:09;8.20;73.44
74224;SHT31;62585;49.706;18.216;2024-03-06T08:42:49;8.13;73.88
74224;SHT31;62585;49.706;18.216;2024-03-06T08:45:18;7.93;73.71
74224;SHT31;62585;49.706;18.216;2024-03-06T08:47:44;7.68;74.34
74224;SHT31;62585;49.706;18.216;2024-03-06T08:50:11;7.81;74.53
74224;SHT31;62585;49.706;18.216;2024-03-06T08:52:37;7.61;73.66
74224;SHT31;62585;49.706;18.216;2024-03-06T08:55:03;7.47;74.47
74224;SHT31;62585;49.706;18.216;2024-03-06T08:57:33;7.64;74.32
74224;SHT31;62585;49.706;18.216;2024-03-06T08:59:59;7.50;73.99
74224;SHT31;62585;49.706;18.216;2024-03-06T09:02:25;7.37;74.19
74224;SHT31;62585;49.706;18.216;2024-03-06T09:04:51;7.43;73.87
74224;SHT31;62585;49.706;18.216;2024-03-06T09:07:18;7.40;74.43
74224;SHT31;62585;49.706;18.216;2024-03-06T09:09:44;7.55;74.22
74224;SHT31;62585;49.706;18.216;2024-03-06T09:12:10;8.03;72.83
74224;SHT31;62585;49.706;18.216;2024-03-06T09:14:37;8.40;72.02
74224;SHT31;62585;49.706;18.216;2024-03-06T09:17:04;8.12;71.78
74224;SHT31;62585;49.706;18.216;2024-03-06T09:19:30;8.65;71.38
74224;SHT31;62585;49.706;18.216;2024-03-06T09:21:56;8.47;70.12
74224;SHT31;62585;49.706;18.216;2024-03-06T09:24:23;8.78;68.29
74224;SHT31;62585;49.706;18.216;2024-03-06T09:26:50;9.19;67.84
74224;SHT31;62585;49.706;18.216;2024-03-06T09:29:17;9.01;67.64
74224;SHT31;62585;49.706;18.216;2024-03-06T09:31:43;9.32;66.67
74224;SHT31;62585;49.706;18.216;2024-03-06T09:34:09;9.32;68.27
74224;SHT31;62585;49.706;18.216;2024-03-06T09:36:41;9.70;65.67
74224;SHT31;62585;49.706;18.216;2024-03-06T09:39:11;10.06;65.81
74224;SHT31;62585;49.706;18.216;2024-03-06T09:41:37;10.02;64.39
74224;SHT31;62585;49.706;18.216;2024-03-06T09:44:06;10.18;63.46
74224;SHT31;62585;49.706;18.216;2024-03-06T09:46:33;10.26;64.15
74224;SHT31;62585;49.706;18.216;2024-03-06T09:49:02;9.94;62.30
74224;SHT31;62585;49.706;18.216;2024-03-06T09:51:28;10.33;64.52
74224;SHT31;62585;49.706;18.216;2024-03-06T09:53:56;10.14;58.54
74224;SHT31;62585;49.706;18.216;2024-03-06T09:56:22;10.23;62.67
74224;SHT31;62585;49.706;18.216;2024-03-06T09:58:48;10.26;61.74
74224;SHT31;62585;49.706;18.216;2024-03-06T10:01:14;10.35;59.95
74224;SHT31;62585;49.706;18.216;2024-03-06T10:03:40;10.21;60.95
74224;SHT31;62585;49.706;18.216;2024-03-06T10:06:10;9.88;60.88
74224;SHT31;62585;49.706;18.216;2024-03-06T10:08:35;9.66;61.36
74224;SHT31;62585;49.706;18.216;2024-03-06T10:11:03;9.73;61.53
74224;SHT31;62585;49.706;18.216;2024-03-06T10:13:29;9.93;60.41
74224;SHT31;62585;49.706;18.216;2024-03-06T10:16:00;10.29;59.62
74224;SHT31;62585;49.706;18.216;2024-03-06T10:18:28;10.50;59.42
74224;SHT31;62585;49.706;18.216;2024-03-06T10:20:54;10.21;60.44
74224;SHT31;62585;49.706;18.216;2024-03-06T10:23:20;10.22;59.86
74224;SHT31;62585;49.706;18.216;2024-03-06T10:25:50;10.50;61.10
74224;SHT31;62585;49.706;18.216;2024-03-06T10:28:20;10.60;58.71
74224;SHT31;62585;49.706;18.216;2024-03-06T10:30:46;10.46;57.32
74224;SHT31;62585;49.706;18.216;2024-03-06T10:33:13;10.26;56.62
74224;SHT31;62585;49.706;18.216;2024-03-06T10:35:43;10.36;58.08
74224;SHT31;62585;49.706;18.216;2024-03-06T10:38:10;10.64;58.45
74224;SHT31;62585;49.706;18.216;2024-03-06T10:40:40;10.93;57.41
74224;SHT31;62585;49.706;18.216;2024-03-06T10:43:07;10.88;56.47
74224;SHT31;62585;49.706;18.216;2024-03-06T10:48:08;11.01;57.09
74224;SHT31;62585;49.706;18.216;2024-03-06T10:50:39;10.56;57.41
74224;SHT31;62585;49.706;18.216;2024-03-06T10:53:08;10.55;56.62
74224;SHT31;62585;49.706;18.216;2024-03-06T10:55:36;10.02;57.43
74224;SHT31;62585;49.706;18.216;2024-03-06T10:58:06;9.93;58.44
74224;SHT31;62585;49.706;18.216;2024-03-06T11:00:39;9.60;58.83
74224;SHT31;62585;49.706;18.216;2024-03-06T11:03:06;9.33;60.42
74224;SHT31;62585;49.706;18.216;2024-03-06T11:05:41;9.44;60.68
74224;SHT31;62585;49.706;18.216;2024-03-06T11:08:14;9.77;59.42
74224;SHT31;62585;49.706;18.216;2024-03-06T11:10:42;9.61;59.30
74224;SHT31;62585;49.706;18.216;2024-03-06T11:13:21;9.56;60.23
74224;SHT31;62585;49.706;18.216;2024-03-06T11:15:49;9.54;59.86
74224;SHT31;62585;49.706;18.216;2024-03-06T11:23:32;9.67;59.83
74224;SHT31;62585;49.706;18.216;2024-03-06T11:26:05;9.81;58.19
74224;SHT31;62585;49.706;18.216;2024-03-06T11:28:38;9.91;58.43
74224;SHT31;62585;49.706;18.216;2024-03-06T11:31:10;9.56;58.45
74224;SHT31;62585;49.706;18.216;2024-03-06T11:33:46;9.44;58.88
74224;SHT31;62585;49.706;18.216;2024-03-06T11:39:07;9.48;59.69
74224;SHT31;62585;49.706;18.216;2024-03-06T11:44:02;9.27;60.05
74224;SHT31;62585;49.706;18.216;2024-03-06T11:46:44;8.97;59.65
74224;SHT31;62585;49.706;18.216;2024-03-06T11:49:21;9.27;61.34
74224;SHT31;62585;49.706;18.216;2024-03-06T11:51:47;9.58;59.35
74224;SHT31;62585;49.706;18.216;2024-03-06T11:54:14;9.51;59.90
74224;SHT31;62585;49.706;18.216;2024-03-06T11:56:40;9.54;59.03
74224;SHT31;62585;49.706;18.216;2024-03-06T11:59:07;9.48;58.81
74224;SHT31;62585;49.706;18.216;2024-03-06T12:01:33;9.50;59.99
74224;SHT31;62585;49.706;18.216;2024-03-06T12:04:00;9.56;60.03
74224;SHT31;62585;49.706;18.216;2024-03-06T12:06:27;9.75;59.58
74224;SHT31;62585;49.706;18.216;2024-03-06T12:08:55;9.50;59.42
74224;SHT31;62585;49.706;18.216;2024-03-06T12:11:20;9.22;58.66
74224;SHT31;62585;49.706;18.216;2024-03-06T12:13:48;9.44;59.10
74224;SHT31;62585;49.706;18.216;2024-03-06T12:16:14;9.66;60.10
74224;SHT31;62585;49.706;18.216;2024-03-06T12:18:40;10.19;59.81
74224;SHT31;62585;49.706;18.216;2024-03-06T12:21:05;10.33;58.58
74224;SHT31;62585;49.706;18.216;2024-03-06T12:23:31;10.22;58.76
74224;SHT31;62585;49.706;18.216;2024-03-06T12:26:05;10.50;59.27
74224;SHT31;62585;49.706;18.216;2024-03-06T12:28:31;10.39;57.03
74224;SHT31;62585;49.706;18.216;2024-03-06T12:30:58;9.99;57.44
74224;SHT31;62585;49.706;18.216;2024-03-06T12:33:27;9.51;60.32
74224;SHT31;62585;49.706;18.216;2024-03-06T12:36:06;9.43;58.38
74224;SHT31;62585;49.706;18.216;2024-03-06T12:38:36;9.70;59.31
74224;SHT31;62585;49.706;18.216;2024-03-06T12:41:02;9.75;59.21
74224;SHT31;62585;49.706;18.216;2024-03-06T12:43:28;9.83;58.86
74224;SHT31;62585;49.706;18.216;2024-03-06T12:45:57;9.85;60.83
74224;SHT31;62585;49.706;18.216;2024-03-06T12:48:23;9.94;60.98
74224;SHT31;62585;49.706;18.216;2024-03-06T12:50:50;9.97;60.74
74224;SHT31;62585;49.706;18.216;2024-03-06T12:53:21;9.95;59.94
74224;SHT31;62585;49.706;18.216;2024-03-06T12:55:47;9.90;59.82
74224;SHT31;62585;49.706;18.216;2024-03-06T12:58:13;9.97;61.12
74224;SHT31;62585;49.706;18.216;2024-03-06T13:00:39;9.83;60.08
74224;SHT31;62585;49.706;18.216;2024-03-06T13:03:05;9.81;60.32
74224;SHT31;62585;49.706;18.216;2024-03-06T13:05:31;9.70;59.14
74224;SHT31;62585;49.706;18.216;2024-03-06T13:07:58;9.27;60.33
74224;SHT31;62585;49.706;18.216;2024-03-06T13:10:25;9.11;60.82
74224;SHT31;62585;49.706;18.216;2024-03-06T13:12:51;9.26;60.80
74224;SHT31;62585;49.706;18.216;2024-03-06T13:15:17;9.04;61.15
74224;SHT31;62585;49.706;18.216;2024-03-06T13:17:43;9.01;61.83
74224;SHT31;62585;49.706;18.216;2024-03-06T13:20:09;9.14;63.05
74224;SHT31;62585;49.706;18.216;2024-03-06T13:22:38;9.40;62.59
74224;SHT31;62585;49.706;18.216;2024-03-06T13:25:03;9.40;61.68
74224;SHT31;62585;49.706;18.216;2024-03-06T13:27:30;9.43;61.86
74224;SHT31;62585;49.706;18.216;2024-03-06T13:29:56;9.32;61.95
74224;SHT31;62585;49.706;18.216;2024-03-06T13:32:22;9.44;61.60
74224;SHT31;62585;49.706;18.216;2024-03-06T13:34:48;9.53;61.09
74224;SHT31;62585;49.706;18.216;2024-03-06T13:37:14;9.30;61.65
74224;SHT31;62585;49.706;18.216;2024-03-06T13:39:40;9.32;62.84
74224;SHT31;62585;49.706;18.216;2024-03-06T13:42:06;9.48;62.03
74224;SHT31;62585;49.706;18.216;2024-03-06T13:44:35;9.70;60.90
74224;SHT31;62585;49.706;18.216;2024-03-06T13:47:01;9.67;61.45
74224;SHT31;62585;49.706;18.216;2024-03-06T13:49:38;9.50;62.24
74224;SHT31;62585;49.706;18.216;2024-03-06T13:52:05;9.44;62.38
74224;SHT31;62585;49.706;18.216;2024-03-06T13:54:32;9.18;63.20
74224;SHT31;62585;49.706;18.216;2024-03-06T13:56:58;8.93;63.80
74224;SHT31;62585;49.706;18.216;2024-03-06T13:59:30;8.77;63.60
74224;SHT31;62585;49.706;18.216;2024-03-06T14:01:56;9.05;64.28
74224;SHT31;62585;49.706;18.216;2024-03-06T14:04:22;9.11;65.33
74224;SHT31;62585;49.706;18.216;2024-03-06T14:06:49;9.04;65.47
74224;SHT31;62585;49.706;18.216;2024-03-06T14:09:15;8.98;65.89
74224;SHT31;62585;49.706;18.216;2024-03-06T14:11:40;8.95;65.47
74224;SHT31;62585;49.706;18.216;2024-03-06T14:14:06;9.14;64.77
74224;SHT31;62585;49.706;18.216;2024-03-06T14:16:34;8.87;65.92
74224;SHT31;62585;49.706;18.216;2024-03-06T14:19:00;8.67;67.50
74224;SHT31;62585;49.706;18.216;2024-03-06T14:21:26;8.64;68.67
74224;SHT31;62585;49.706;18.216;2024-03-06T14:23:52;8.64;68.85
74224;SHT31;62585;49.706;18.216;2024-03-06T14:26:18;8.22;68.75
74224;SHT31;62585;49.706;18.216;2024-03-06T14:28:43;8.33;70.43
74224;SHT31;62585;49.706;18.216;2024-03-06T14:31:09;8.37;69.71
74224;SHT31;62585;49.706;18.216;2024-03-06T14:33:39;8.20;70.90
74224;SHT31;62585;49.706;18.216;2024-03-06T14:36:05;8.28;71.67
74224;SHT31;62585;49.706;18.216;2024-03-06T14:38:33;8.26;72.44
74224;SHT31;62585;49.706;18.216;2024-03-06T14:40:59;8.34;71.59
74224;SHT31;62585;49.706;18.216;2024-03-06T14:43:25;8.25;70.16
74224;SHT31;62585;49.706;18.216;2024-03-06T14:45:51;8.39;69.67
74224;SHT31;62585;49.706;18.216;2024-03-06T14:48:16;8.30;69.87
74224;SHT31;62585;49.706;18.216;2024-03-06T14:50:43;8.30;71.41
74224;SHT31;62585;49.706;18.216;2024-03-06T14:53:09;8.37;70.97
74224;SHT31;62585;49.706;18.216;2024-03-06T14:55:34;8.13;71.04
74224;SHT31;62585;49.706;18.216;2024-03-06T14:58:00;8.02;70.84
74224;SHT31;62585;49.706;18.216;2024-03-06T15:00:26;8.02;70.79
74224;SHT31;62585;49.706;18.216;2024-03-06T15:02:52;8.07;71.11
74224;SHT31;62585;49.706;18.216;2024-03-06T15:05:18;8.05;71.22
74224;SHT31;62585;49.706;18.216;2024-03-06T15:07:43;8.02;71.76
74224;SHT31;62585;49.706;18.216;2024-03-06T15:10:09;8.06;71.54
74224;SHT31;62585;49.706;18.216;2024-03-06T15:12:35;7.99;71.92
74224;SHT31;62585;49.706;18.216;2024-03-06T15:15:02;7.74;72.38
74224;SHT31;62585;49.706;18.216;2024-03-06T15:17:32;7.70;73.09
74224;SHT31;62585;49.706;18.216;2024-03-06T15:19:58;7.64;72.42
74224;SHT31;62585;49.706;18.216;2024-03-06T15:22:25;7.67;72.48
74224;SHT31;62585;49.706;18.216;2024-03-06T15:24:50;7.57;73.01
74224;SHT31;62585;49.706;18.216;2024-03-06T15:27:16;7.54;73.11
74224;SHT31;62585;49.706;18.216;2024-03-06T15:29:42;7.50;73.76
74224;SHT31;62585;49.706;18.216;2024-03-06T15:32:09;7.50;74.36
74224;SHT31;62585;49.706;18.216;2024-03-06T15:34:38;7.46;74.28
74224;SHT31;62585;49.706;18.216;2024-03-06T15:37:04;7.38;73.51
74224;SHT31;62585;49.706;18.216;2024-03-06T15:39:30;7.30;74.12
74224;SHT31;62585;49.706;18.216;2024-03-06T15:41:56;7.10;75.49
74224;SHT31;62585;49.706;18.216;2024-03-06T15:44:22;7.26;74.95